sensor_id;sensor_type;location;lat;lon;timestamp;temperature;humidity
9752;DHT22;4915;51.226;5.966;2022-08-23T00:02:09;18.40;99.90
9752;DHT22;4915;51.226;5.966;2022-08-23T00:04:38;18.30;99.90
9752;DHT22;4915;51.226;5.966;2022-08-23T00:07:09;18.30;99.90
9752;DHT22;4915;51.226;5.966;2022-08-23T00:09:37;18.30;99.90
9752;DHT22;4915;51.226;5.966;2022-08-23T00:12:09;18.20;99.90
9752;DHT22;4915;51.226;5.966;2022-08-23T00:14:41;18.10;99.90
9752;DHT22;4915;51.226;5.966;2022-08-23T00:17:11;17.80;99.90
9752;DHT22;4915;51.226;5.966;2022-08-23T00:19:40;17.80;99.90
9752;DHT22;4915;51.226;5.966;2022-08-23T00:22:08;17.80;99.90
9752;DHT22;4915;51.226;5.966;2022-08-23T00:24:37;17.80;99.90
9752;DHT22;4915;51.226;5.966;2022-08-23T00:27:07;17.80;99.90
9752;DHT22;4915;51.226;5.966;2022-08-23T00:29:37;17.50;99.90
9752;DHT22;4915;51.226;5.966;2022-08-23T00:32:07;17.40;99.90
9752;DHT22;4915;51.226;5.966;2022-08-23T00:34:36;17.20;99.90
9752;DHT22;4915;51.226;5.966;2022-08-23T00:37:05;17.30;99.90
9752;DHT22;4915;51.226;5.966;2022-08-23T00:39:33;17.40;99.90
9752;DHT22;4915;51.226;5.966;2022-08-23T00:42:08;17.50;99.90
9752;DHT22;4915;51.226;5.966;2022-08-23T00:44:51;17.60;99.90
9752;DHT22;4915;51.226;5.966;2022-08-23T00:47:38;17.60;99.90
9752;DHT22;4915;51.226;5.966;2022-08-23T00:50:14;17.60;99.90
9752;DHT22;4915;51.226;5.966;2022-08-23T00:52:46;17.70;99.90
9752;DHT22;4915;51.226;5.966;2022-08-23T00:55:15;17.80;99.90
9752;DHT22;4915;51.226;5.966;2022-08-23T00:57:43;17.70;99.90
9752;DHT22;4915;51.226;5.966;2022-08-23T01:00:13;17.70;99.90
9752;DHT22;4915;51.226;5.966;2022-08-23T01:02:41;17.60;99.90
9752;DHT22;4915;51.226;5.966;2022-08-23T01:05:11;17.60;99.90
9752;DHT22;4915;51.226;5.966;2022-08-23T01:07:48;17.50;99.90
9752;DHT22;4915;51.226;5.966;2022-08-23T01:10:22;17.50;99.90
9752;DHT22;4915;51.226;5.966;2022-08-23T01:12:55;17.50;99.90
9752;DHT22;4915;51.226;5.966;2022-08-23T01:15:27;17.40;99.90
9752;DHT22;4915;51.226;5.966;2022-08-23T01:18:03;17.30;99.90
9752;DHT22;4915;51.226;5.966;2022-08-23T01:20:47;17.30;99.90
9752;DHT22;4915;51.226;5.966;2022-08-23T01:23:27;17.20;99.90
9752;DHT22;4915;51.226;5.966;2022-08-23T01:25:55;17.10;99.90
9752;DHT22;4915;51.226;5.966;2022-08-23T01:28:23;17.00;99.90
9752;DHT22;4915;51.226;5.966;2022-08-23T01:30:50;16.80;99.90
9752;DHT22;4915;51.226;5.966;2022-08-23T01:33:17;16.80;99.90
9752;DHT22;4915;51.226;5.966;2022-08-23T01:35:47;16.80;99.90
9752;DHT22;4915;51.226;5.966;2022-08-23T01:38:16;16.80;99.90
9752;DHT22;4915;51.226;5.966;2022-08-23T01:40:45;16.80;99.90
9752;DHT22;4915;51.226;5.966;2022-08-23T01:43:14;16.90;99.90
9752;DHT22;4915;51.226;5.966;2022-08-23T01:45:43;16.90;99.90
9752;DHT22;4915;51.226;5.966;2022-08-23T01:48:10;16.90;99.90
9752;DHT22;4915;51.226;5.966;2022-08-23T01:50:37;16.90;99.90
9752;DHT22;4915;51.226;5.966;2022-08-23T01:53:05;16.90;99.90
9752;DHT22;4915;51.226;5.966;2022-08-23T01:55:33;16.90;99.90
9752;DHT22;4915;51.226;5.966;2022-08-23T01:58:02;16.80;99.90
9752;DHT22;4915;51.226;5.966;2022-08-23T02:00:33;16.90;99.90
9752;DHT22;4915;51.226;5.966;2022-08-23T02:03:01;16.80;99.90
9752;DHT22;4915;51.226;5.966;2022-08-23T02:05:30;16.80;99.90
9752;DHT22;4915;51.226;5.966;2022-08-23T02:07:57;16.80;99.90
9752;DHT22;4915;51.226;5.966;2022-08-23T02:10:44;16.80;99.90
9752;DHT22;4915;51.226;5.966;2022-08-23T02:13:13;16.70;99.90
9752;DHT22;4915;51.226;5.966;2022-08-23T02:15:41;16.70;99.90
9752;DHT22;4915;51.226;5.966;2022-08-23T02:18:09;16.70;99.90
9752;DHT22;4915;51.226;5.966;2022-08-23T02:20:38;16.70;99.90
9752;DHT22;4915;51.226;5.966;2022-08-23T02:23:09;16.70;99.90
9752;DHT22;4915;51.226;5.966;2022-08-23T02:25:36;16.70;99.90
9752;DHT22;4915;51.226;5.966;2022-08-23T02:28:03;16.70;99.90
9752;DHT22;4915;51.226;5.966;2022-08-23T02:30:32;16.70;99.90
9752;DHT22;4915;51.226;5.966;2022-08-23T02:32:59;16.70;99.90
9752;DHT22;4915;51.226;5.966;2022-08-23T02:35:26;16.80;99.90
9752;DHT22;4915;51.226;5.966;2022-08-23T02:37:53;16.70;99.90
9752;DHT22;4915;51.226;5.966;2022-08-23T02:40:21;16.70;99.90
9752;DHT22;4915;51.226;5.966;2022-08-23T02:42:48;16.70;99.90
9752;DHT22;4915;51.226;5.966;2022-08-23T02:45:15;16.70;99.90
9752;DHT22;4915;51.226;5.966;2022-08-23T02:47:44;16.70;99.90
9752;DHT22;4915;51.226;5.966;2022-08-23T02:50:12;16.70;99.90
9752;DHT22;4915;51.226;5.966;2022-08-23T02:52:40;16.70;99.90
9752;DHT22;4915;51.226;5.966;2022-08-23T02:55:08;16.70;99.90
9752;DHT22;4915;51.226;5.966;2022-08-23T02:57:35;16.60;99.90
9752;DHT22;4915;51.226;5.966;2022-08-23T03:00:05;16.60;99.90
9752;DHT22;4915;51.226;5.966;2022-08-23T03:02:34;16.60;99.90
9752;DHT22;4915;51.226;5.966;2022-08-23T03:05:03;16.60;99.90
9752;DHT22;4915;51.226;5.966;2022-08-23T03:07:30;16.50;99.90
9752;DHT22;4915;51.226;5.966;2022-08-23T03:09:57;16.30;99.90
9752;DHT22;4915;51.226;5.966;2022-08-23T03:12:25;15.90;99.90
9752;DHT22;4915;51.226;5.966;2022-08-23T03:14:53;15.80;99.90
9752;DHT22;4915;51.226;5.966;2022-08-23T03:17:21;15.60;99.90
9752;DHT22;4915;51.226;5.966;2022-08-23T03:19:48;15.70;99.90
9752;DHT22;4915;51.226;5.966;2022-08-23T03:22:18;15.80;99.90
9752;DHT22;4915;51.226;5.966;2022-08-23T03:24:47;15.70;99.90
9752;DHT22;4915;51.226;5.966;2022-08-23T03:27:15;15.50;99.90
9752;DHT22;4915;51.226;5.966;2022-08-23T03:29:42;15.50;99.90
9752;DHT22;4915;51.226;5.966;2022-08-23T03:32:09;15.50;99.90
9752;DHT22;4915;51.226;5.966;2022-08-23T03:34:36;15.50;99.90
9752;DHT22;4915;51.226;5.966;2022-08-23T03:37:04;15.50;99.90
9752;DHT22;4915;51.226;5.966;2022-08-23T03:39:32;15.60;99.90
9752;DHT22;4915;51.226;5.966;2022-08-23T03:41:59;15.80;99.90
9752;DHT22;4915;51.226;5.966;2022-08-23T03:44:26;16.00;99.90
9752;DHT22;4915;51.226;5.966;2022-08-23T03:46:54;16.20;99.90
9752;DHT22;4915;51.226;5.966;2022-08-23T03:49:21;16.30;99.90
9752;DHT22;4915;51.226;5.966;2022-08-23T03:51:48;16.40;99.90
9752;DHT22;4915;51.226;5.966;2022-08-23T03:54:15;16.40;99.90
9752;DHT22;4915;51.226;5.966;2022-08-23T03:56:51;16.30;99.90
9752;DHT22;4915;51.226;5.966;2022-08-23T03:59:19;16.30;99.90
9752;DHT22;4915;51.226;5.966;2022-08-23T04:01:46;16.30;99.90
9752;DHT22;4915;51.226;5.966;2022-08-23T04:04:13;16.30;99.90
9752;DHT22;4915;51.226;5.966;2022-08-23T04:06:40;16.40;99.90
9752;DHT22;4915;51.226;5.966;2022-08-23T04:09:09;16.30;99.90
9752;DHT22;4915;51.226;5.966;2022-08-23T04:11:37;16.30;99.90
9752;DHT22;4915;51.226;5.966;2022-08-23T04:14:06;16.40;99.90
9752;DHT22;4915;51.226;5.966;2022-08-23T04:16:33;16.40;99.90
9752;DHT22;4915;51.226;5.966;2022-08-23T04:19:02;16.40;99.90
9752;DHT22;4915;51.226;5.966;2022-08-23T04:21:31;16.30;99.90
9752;DHT22;4915;51.226;5.966;2022-08-23T04:23:58;16.30;99.90
9752;DHT22;4915;51.226;5.966;2022-08-23T04:26:27;16.30;99.90
9752;DHT22;4915;51.226;5.966;2022-08-23T04:28:55;16.30;99.90
9752;DHT22;4915;51.226;5.966;2022-08-23T04:31:24;16.30;99.90
9752;DHT22;4915;51.226;5.966;2022-08-23T04:33:52;16.30;99.90
9752;DHT22;4915;51.226;5.966;2022-08-23T04:36:20;16.40;99.90
9752;DHT22;4915;51.226;5.966;2022-08-23T04:38:48;16.40;99.90
9752;DHT22;4915;51.226;5.966;2022-08-23T04:41:15;16.50;99.90
9752;DHT22;4915;51.226;5.966;2022-08-23T04:44:00;16.60;99.90
9752;DHT22;4915;51.226;5.966;2022-08-23T04:46:29;16.70;99.90
9752;DHT22;4915;51.226;5.966;2022-08-23T04:48:56;16.70;99.90
9752;DHT22;4915;51.226;5.966;2022-08-23T04:51:24;16.80;99.90
9752;DHT22;4915;51.226;5.966;2022-08-23T04:53:51;16.90;99.90
9752;DHT22;4915;51.226;5.966;2022-08-23T04:56:18;16.90;99.90
9752;DHT22;4915;51.226;5.966;2022-08-23T04:58:45;16.90;99.90
9752;DHT22;4915;51.226;5.966;2022-08-23T05:01:12;17.00;99.90
9752;DHT22;4915;51.226;5.966;2022-08-23T05:03:42;17.00;99.90
9752;DHT22;4915;51.226;5.966;2022-08-23T05:06:09;17.00;99.90
9752;DHT22;4915;51.226;5.966;2022-08-23T05:08:36;17.00;99.90
9752;DHT22;4915;51.226;5.966;2022-08-23T05:11:05;17.10;99.90
9752;DHT22;4915;51.226;5.966;2022-08-23T05:13:34;17.10;99.90
9752;DHT22;4915;51.226;5.966;2022-08-23T05:16:01;17.10;99.90
9752;DHT22;4915;51.226;5.966;2022-08-23T05:18:29;17.10;99.90
9752;DHT22;4915;51.226;5.966;2022-08-23T05:20:57;17.10;99.90
9752;DHT22;4915;51.226;5.966;2022-08-23T05:23:25;17.20;99.90
9752;DHT22;4915;51.226;5.966;2022-08-23T05:25:53;17.20;99.90
9752;DHT22;4915;51.226;5.966;2022-08-23T05:28:22;17.30;99.90
9752;DHT22;4915;51.226;5.966;2022-08-23T05:30:55;17.40;99.90
9752;DHT22;4915;51.226;5.966;2022-08-23T05:33:23;17.50;99.90
9752;DHT22;4915;51.226;5.966;2022-08-23T05:35:51;17.50;99.90
9752;DHT22;4915;51.226;5.966;2022-08-23T05:38:20;17.60;99.90
9752;DHT22;4915;51.226;5.966;2022-08-23T05:40:49;17.70;99.90
9752;DHT22;4915;51.226;5.966;2022-08-23T05:43:16;17.80;99.90
9752;DHT22;4915;51.226;5.966;2022-08-23T05:45:45;17.90;99.90
9752;DHT22;4915;51.226;5.966;2022-08-23T05:48:12;18.00;99.90
9752;DHT22;4915;51.226;5.966;2022-08-23T05:50:40;18.10;99.90
9752;DHT22;4915;51.226;5.966;2022-08-23T05:53:08;18.30;99.90
9752;DHT22;4915;51.226;5.966;2022-08-23T05:55:37;18.40;99.90
9752;DHT22;4915;51.226;5.966;2022-08-23T05:58:04;18.80;99.90
9752;DHT22;4915;51.226;5.966;2022-08-23T06:00:31;18.90;99.90
9752;DHT22;4915;51.226;5.966;2022-08-23T06:02:59;18.90;99.90
9752;DHT22;4915;51.226;5.966;2022-08-23T06:05:26;19.00;99.90
9752;DHT22;4915;51.226;5.966;2022-08-23T06:07:58;19.20;99.90
9752;DHT22;4915;51.226;5.966;2022-08-23T06:10:25;19.20;99.90
9752;DHT22;4915;51.226;5.966;2022-08-23T06:12:53;19.40;99.90
9752;DHT22;4915;51.226;5.966;2022-08-23T06:15:20;19.50;99.90
9752;DHT22;4915;51.226;5.966;2022-08-23T06:17:48;19.60;99.90
9752;DHT22;4915;51.226;5.966;2022-08-23T06:20:15;19.80;99.90
9752;DHT22;4915;51.226;5.966;2022-08-23T06:22:43;19.80;99.90
9752;DHT22;4915;51.226;5.966;2022-08-23T06:25:10;20.00;99.90
9752;DHT22;4915;51.226;5.966;2022-08-23T06:27:37;20.00;99.90
9752;DHT22;4915;51.226;5.966;2022-08-23T06:30:06;20.00;99.90
9752;DHT22;4915;51.226;5.966;2022-08-23T06:32:36;20.10;99.90
9752;DHT22;4915;51.226;5.966;2022-08-23T06:35:03;20.20;99.90
9752;DHT22;4915;51.226;5.966;2022-08-23T06:37:30;20.30;99.90
9752;DHT22;4915;51.226;5.966;2022-08-23T06:39:57;20.30;99.90
9752;DHT22;4915;51.226;5.966;2022-08-23T06:42:25;20.20;99.90
9752;DHT22;4915;51.226;5.966;2022-08-23T06:44:52;20.30;99.90
9752;DHT22;4915;51.226;5.966;2022-08-23T06:47:20;20.40;99.90
9752;DHT22;4915;51.226;5.966;2022-08-23T06:49:48;20.40;99.90
9752;DHT22;4915;51.226;5.966;2022-08-23T06:52:15;20.40;99.90
9752;DHT22;4915;51.226;5.966;2022-08-23T06:54:42;20.40;99.90
9752;DHT22;4915;51.226;5.966;2022-08-23T06:57:11;20.30;99.90
9752;DHT22;4915;51.226;5.966;2022-08-23T06:59:39;20.50;99.90
9752;DHT22;4915;51.226;5.966;2022-08-23T07:02:07;20.70;99.90
9752;DHT22;4915;51.226;5.966;2022-08-23T07:04:38;20.90;99.90
9752;DHT22;4915;51.226;5.966;2022-08-23T07:07:06;21.10;99.90
9752;DHT22;4915;51.226;5.966;2022-08-23T07:09:34;21.50;99.90
9752;DHT22;4915;51.226;5.966;2022-08-23T07:12:02;22.10;99.90
9752;DHT22;4915;51.226;5.966;2022-08-23T07:14:30;23.00;99.90
9752;DHT22;4915;51.226;5.966;2022-08-23T07:17:00;23.50;99.90
9752;DHT22;4915;51.226;5.966;2022-08-23T07:19:31;24.00;99.90
9752;DHT22;4915;51.226;5.966;2022-08-23T07:22:01;24.30;99.90
9752;DHT22;4915;51.226;5.966;2022-08-23T07:24:29;24.60;99.90
9752;DHT22;4915;51.226;5.966;2022-08-23T07:26:57;25.00;99.90
9752;DHT22;4915;51.226;5.966;2022-08-23T07:29:24;25.00;99.90
9752;DHT22;4915;51.226;5.966;2022-08-23T07:31:55;24.50;99.90
9752;DHT22;4915;51.226;5.966;2022-08-23T07:34:23;24.70;99.90
9752;DHT22;4915;51.226;5.966;2022-08-23T07:36:51;24.40;99.90
9752;DHT22;4915;51.226;5.966;2022-08-23T07:39:22;25.20;99.90
9752;DHT22;4915;51.226;5.966;2022-08-23T07:41:51;25.40;99.90
9752;DHT22;4915;51.226;5.966;2022-08-23T07:44:18;25.20;99.90
9752;DHT22;4915;51.226;5.966;2022-08-23T07:46:46;25.60;99.90
9752;DHT22;4915;51.226;5.966;2022-08-23T07:49:14;26.40;99.90
9752;DHT22;4915;51.226;5.966;2022-08-23T07:51:45;26.70;99.90
9752;DHT22;4915;51.226;5.966;2022-08-23T07:54:14;26.60;99.90
9752;DHT22;4915;51.226;5.966;2022-08-23T07:56:42;26.70;99.90
9752;DHT22;4915;51.226;5.966;2022-08-23T07:59:10;26.20;99.90
9752;DHT22;4915;51.226;5.966;2022-08-23T08:01:37;26.60;99.90
9752;DHT22;4915;51.226;5.966;2022-08-23T08:04:06;26.90;94.10
9752;DHT22;4915;51.226;5.966;2022-08-23T08:06:37;26.50;55.20
9752;DHT22;4915;51.226;5.966;2022-08-23T08:09:05;26.90;32.00
9752;DHT22;4915;51.226;5.966;2022-08-23T08:11:33;26.70;15.90
9752;DHT22;4915;51.226;5.966;2022-08-23T08:14:04;27.10;1.80
9752;DHT22;4915;51.226;5.966;2022-08-23T08:16:34;26.80;1.00
9752;DHT22;4915;51.226;5.966;2022-08-23T08:19:03;27.20;1.00
9752;DHT22;4915;51.226;5.966;2022-08-23T08:21:32;27.40;1.00
9752;DHT22;4915;51.226;5.966;2022-08-23T08:23:59;27.30;1.00
9752;DHT22;4915;51.226;5.966;2022-08-23T08:26:27;27.40;1.00
9752;DHT22;4915;51.226;5.966;2022-08-23T08:28:55;27.50;1.00
9752;DHT22;4915;51.226;5.966;2022-08-23T08:31:24;27.20;1.00
9752;DHT22;4915;51.226;5.966;2022-08-23T08:33:52;27.10;1.00
9752;DHT22;4915;51.226;5.966;2022-08-23T08:36:31;28.30;1.00
9752;DHT22;4915;51.226;5.966;2022-08-23T08:39:00;28.20;1.00
9752;DHT22;4915;51.226;5.966;2022-08-23T08:41:48;27.80;1.00
9752;DHT22;4915;51.226;5.966;2022-08-23T08:44:26;28.40;1.00
9752;DHT22;4915;51.226;5.966;2022-08-23T08:46:56;28.20;1.00
9752;DHT22;4915;51.226;5.966;2022-08-23T08:49:32;28.30;1.00
9752;DHT22;4915;51.226;5.966;2022-08-23T08:52:09;28.30;1.00
9752;DHT22;4915;51.226;5.966;2022-08-23T08:54:39;28.00;1.00
9752;DHT22;4915;51.226;5.966;2022-08-23T08:57:10;28.20;1.00
9752;DHT22;4915;51.226;5.966;2022-08-23T08:59:45;28.20;1.00
9752;DHT22;4915;51.226;5.966;2022-08-23T09:02:16;28.40;1.00
9752;DHT22;4915;51.226;5.966;2022-08-23T09:04:44;28.80;1.00
9752;DHT22;4915;51.226;5.966;2022-08-23T09:07:19;28.80;1.00
9752;DHT22;4915;51.226;5.966;2022-08-23T09:10:04;28.90;1.00
9752;DHT22;4915;51.226;5.966;2022-08-23T09:12:41;28.80;1.00
9752;DHT22;4915;51.226;5.966;2022-08-23T09:15:23;28.80;1.00
9752;DHT22;4915;51.226;5.966;2022-08-23T16:48:30;29.00;1.00
9752;DHT22;4915;51.226;5.966;2022-08-23T16:50:58;29.00;1.00
9752;DHT22;4915;51.226;5.966;2022-08-23T16:53:28;29.00;1.00
9752;DHT22;4915;51.226;5.966;2022-08-23T16:55:55;29.00;1.00
9752;DHT22;4915;51.226;5.966;2022-08-23T16:58:23;28.90;1.00
9752;DHT22;4915;51.226;5.966;2022-08-23T17:00:50;28.80;1.00
9752;DHT22;4915;51.226;5.966;2022-08-23T17:03:18;29.00;1.00
9752;DHT22;4915;51.226;5.966;2022-08-23T17:05:47;28.90;1.00
9752;DHT22;4915;51.226;5.966;2022-08-23T17:08:14;28.80;1.00
9752;DHT22;4915;51.226;5.966;2022-08-23T17:10:42;28.80;1.00
9752;DHT22;4915;51.226;5.966;2022-08-23T17:13:11;28.80;1.00
9752;DHT22;4915;51.226;5.966;2022-08-23T17:15:40;28.70;1.00
9752;DHT22;4915;51.226;5.966;2022-08-23T17:18:07;28.60;1.00
9752;DHT22;4915;51.226;5.966;2022-08-23T17:20:36;28.50;1.00
9752;DHT22;4915;51.226;5.966;2022-08-23T17:23:06;28.50;1.00
9752;DHT22;4915;51.226;5.966;2022-08-23T17:25:34;28.50;1.00
9752;DHT22;4915;51.226;5.966;2022-08-23T17:28:04;28.30;1.00
9752;DHT22;4915;51.226;5.966;2022-08-23T17:30:31;28.30;1.00
9752;DHT22;4915;51.226;5.966;2022-08-23T17:32:59;28.30;1.00
9752;DHT22;4915;51.226;5.966;2022-08-23T17:35:27;28.20;1.00
9752;DHT22;4915;51.226;5.966;2022-08-23T17:37:55;28.10;1.00
9752;DHT22;4915;51.226;5.966;2022-08-23T17:40:26;28.00;1.00
9752;DHT22;4915;51.226;5.966;2022-08-23T17:42:54;27.90;1.00
9752;DHT22;4915;51.226;5.966;2022-08-23T17:45:22;27.80;1.00
9752;DHT22;4915;51.226;5.966;2022-08-23T17:47:49;27.70;1.00
9752;DHT22;4915;51.226;5.966;2022-08-23T17:50:17;27.70;1.00
9752;DHT22;4915;51.226;5.966;2022-08-23T17:52:44;27.80;1.00
9752;DHT22;4915;51.226;5.966;2022-08-23T17:55:12;27.70;1.00
9752;DHT22;4915;51.226;5.966;2022-08-23T17:57:43;27.60;1.00
9752;DHT22;4915;51.226;5.966;2022-08-23T18:00:12;27.50;1.00
9752;DHT22;4915;51.226;5.966;2022-08-23T18:02:40;27.40;1.00
9752;DHT22;4915;51.226;5.966;2022-08-23T18:05:09;27.30;1.00
9752;DHT22;4915;51.226;5.966;2022-08-23T18:07:36;27.30;1.00
9752;DHT22;4915;51.226;5.966;2022-08-23T18:10:04;27.20;1.00
9752;DHT22;4915;51.226;5.966;2022-08-23T18:12:32;27.10;1.00
9752;DHT22;4915;51.226;5.966;2022-08-23T18:15:01;27.10;1.00
9752;DHT22;4915;51.226;5.966;2022-08-23T18:17:29;27.00;1.00
9752;DHT22;4915;51.226;5.966;2022-08-23T18:19:56;26.90;1.00
9752;DHT22;4915;51.226;5.966;2022-08-23T18:22:24;26.80;1.00
9752;DHT22;4915;51.226;5.966;2022-08-23T18:24:51;26.70;1.00
9752;DHT22;4915;51.226;5.966;2022-08-23T18:27:18;26.70;1.00
9752;DHT22;4915;51.226;5.966;2022-08-23T18:30:07;26.70;1.00
9752;DHT22;4915;51.226;5.966;2022-08-23T18:32:35;26.50;1.00
9752;DHT22;4915;51.226;5.966;2022-08-23T18:35:03;26.40;1.00
9752;DHT22;4915;51.226;5.966;2022-08-23T18:37:31;26.30;1.00
9752;DHT22;4915;51.226;5.966;2022-08-23T18:39:58;26.20;1.00
9752;DHT22;4915;51.226;5.966;2022-08-23T18:42:25;26.10;1.00
9752;DHT22;4915;51.226;5.966;2022-08-23T18:44:54;26.00;1.00
9752;DHT22;4915;51.226;5.966;2022-08-23T18:47:22;25.90;1.00
9752;DHT22;4915;51.226;5.966;2022-08-23T18:49:51;25.90;1.00
9752;DHT22;4915;51.226;5.966;2022-08-23T18:52:18;25.80;1.00
9752;DHT22;4915;51.226;5.966;2022-08-23T18:54:45;25.60;1.00
9752;DHT22;4915;51.226;5.966;2022-08-23T18:57:12;25.50;1.00
9752;DHT22;4915;51.226;5.966;2022-08-23T18:59:40;25.40;1.00
9752;DHT22;4915;51.226;5.966;2022-08-23T19:02:07;25.20;1.00
9752;DHT22;4915;51.226;5.966;2022-08-23T19:04:36;25.10;1.00
9752;DHT22;4915;51.226;5.966;2022-08-23T19:07:03;25.10;1.00
9752;DHT22;4915;51.226;5.966;2022-08-23T19:09:30;25.00;1.00
9752;DHT22;4915;51.226;5.966;2022-08-23T19:11:57;24.90;1.00
9752;DHT22;4915;51.226;5.966;2022-08-23T19:14:25;24.90;1.00
9752;DHT22;4915;51.226;5.966;2022-08-23T19:16:53;24.90;1.00
9752;DHT22;4915;51.226;5.966;2022-08-23T19:19:21;24.70;1.00
9752;DHT22;4915;51.226;5.966;2022-08-23T19:21:49;24.50;1.00
9752;DHT22;4915;51.226;5.966;2022-08-23T19:24:16;24.30;7.40
9752;DHT22;4915;51.226;5.966;2022-08-23T19:26:43;24.20;13.40
9752;DHT22;4915;51.226;5.966;2022-08-23T19:29:12;24.20;28.40
9752;DHT22;4915;51.226;5.966;2022-08-23T19:31:39;24.20;20.90
9752;DHT22;4915;51.226;5.966;2022-08-23T19:34:10;24.20;29.50
9752;DHT22;4915;51.226;5.966;2022-08-23T19:36:37;24.20;26.40
9752;DHT22;4915;51.226;5.966;2022-08-23T19:39:06;24.00;35.00
9752;DHT22;4915;51.226;5.966;2022-08-23T19:41:33;23.90;50.80
9752;DHT22;4915;51.226;5.966;2022-08-23T19:44:00;23.90;66.80
9752;DHT22;4915;51.226;5.966;2022-08-23T19:46:28;23.80;86.70
9752;DHT22;4915;51.226;5.966;2022-08-23T19:48:56;23.80;92.80
9752;DHT22;4915;51.226;5.966;2022-08-23T19:51:23;23.80;99.90
9752;DHT22;4915;51.226;5.966;2022-08-23T19:53:51;23.80;99.90
9752;DHT22;4915;51.226;5.966;2022-08-23T19:56:34;23.70;99.90
9752;DHT22;4915;51.226;5.966;2022-08-23T19:59:03;23.60;99.90
9752;DHT22;4915;51.226;5.966;2022-08-23T20:01:30;23.50;99.90
9752;DHT22;4915;51.226;5.966;2022-08-23T20:03:57;23.50;99.90
9752;DHT22;4915;51.226;5.966;2022-08-23T20:06:24;23.50;99.90
9752;DHT22;4915;51.226;5.966;2022-08-23T20:08:52;23.40;99.90
9752;DHT22;4915;51.226;5.966;2022-08-23T20:11:19;23.40;99.90
9752;DHT22;4915;51.226;5.966;2022-08-23T20:13:49;23.40;99.90
9752;DHT22;4915;51.226;5.966;2022-08-23T20:16:18;23.40;99.90
9752;DHT22;4915;51.226;5.966;2022-08-23T20:18:45;23.40;99.90
9752;DHT22;4915;51.226;5.966;2022-08-23T20:21:12;23.30;99.90
9752;DHT22;4915;51.226;5.966;2022-08-23T20:23:39;23.30;99.90
9752;DHT22;4915;51.226;5.966;2022-08-23T20:26:23;23.30;99.90
9752;DHT22;4915;51.226;5.966;2022-08-23T20:28:52;23.10;99.90
9752;DHT22;4915;51.226;5.966;2022-08-23T20:31:21;23.10;99.90
9752;DHT22;4915;51.226;5.966;2022-08-23T20:33:48;22.80;99.90
9752;DHT22;4915;51.226;5.966;2022-08-23T20:36:16;22.70;99.90
9752;DHT22;4915;51.226;5.966;2022-08-23T20:38:45;22.60;99.90
9752;DHT22;4915;51.226;5.966;2022-08-23T20:41:12;22.50;99.90
9752;DHT22;4915;51.226;5.966;2022-08-23T20:43:40;22.40;99.90
9752;DHT22;4915;51.226;5.966;2022-08-23T20:46:08;22.40;99.90
9752;DHT22;4915;51.226;5.966;2022-08-23T20:48:35;22.40;99.90
9752;DHT22;4915;51.226;5.966;2022-08-23T20:51:05;22.40;99.90
9752;DHT22;4915;51.226;5.966;2022-08-23T20:53:33;22.30;99.90
9752;DHT22;4915;51.226;5.966;2022-08-23T20:56:01;22.40;99.90
9752;DHT22;4915;51.226;5.966;2022-08-23T20:58:29;22.30;99.90
9752;DHT22;4915;51.226;5.966;2022-08-23T21:00:56;22.20;99.90
9752;DHT22;4915;51.226;5.966;2022-08-23T21:03:25;22.20;99.90
9752;DHT22;4915;51.226;5.966;2022-08-23T21:06:01;22.30;99.90
9752;DHT22;4915;51.226;5.966;2022-08-23T21:08:29;22.20;99.90
9752;DHT22;4915;51.226;5.966;2022-08-23T21:10:57;22.20;99.90
9752;DHT22;4915;51.226;5.966;2022-08-23T21:13:24;22.20;99.90
9752;DHT22;4915;51.226;5.966;2022-08-23T21:15:51;22.20;99.90
9752;DHT22;4915;51.226;5.966;2022-08-23T21:18:18;22.20;99.90
9752;DHT22;4915;51.226;5.966;2022-08-23T21:20:47;22.10;99.90
9752;DHT22;4915;51.226;5.966;2022-08-23T21:23:14;22.10;99.90
9752;DHT22;4915;51.226;5.966;2022-08-23T21:25:41;22.10;99.90
9752;DHT22;4915;51.226;5.966;2022-08-23T21:28:08;22.10;99.90
9752;DHT22;4915;51.226;5.966;2022-08-23T21:30:35;22.00;99.90
9752;DHT22;4915;51.226;5.966;2022-08-23T21:33:03;21.80;99.90
9752;DHT22;4915;51.226;5.966;2022-08-23T21:35:33;21.70;99.90
9752;DHT22;4915;51.226;5.966;2022-08-23T21:38:02;21.60;99.90
9752;DHT22;4915;51.226;5.966;2022-08-23T21:40:29;21.60;99.90
9752;DHT22;4915;51.226;5.966;2022-08-23T21:42:56;21.60;99.90
9752;DHT22;4915;51.226;5.966;2022-08-23T21:45:24;21.60;99.90
9752;DHT22;4915;51.226;5.966;2022-08-23T21:47:51;21.70;99.90
9752;DHT22;4915;51.226;5.966;2022-08-23T21:50:18;21.60;99.90
9752;DHT22;4915;51.226;5.966;2022-08-23T21:52:46;21.70;99.90
9752;DHT22;4915;51.226;5.966;2022-08-23T21:55:14;21.60;99.90
9752;DHT22;4915;51.226;5.966;2022-08-23T21:57:41;21.50;99.90
9752;DHT22;4915;51.226;5.966;2022-08-23T22:00:14;21.40;99.90
9752;DHT22;4915;51.226;5.966;2022-08-23T22:02:42;21.30;99.90
9752;DHT22;4915;51.226;5.966;2022-08-23T22:05:09;21.30;99.90
9752;DHT22;4915;51.226;5.966;2022-08-23T22:07:37;21.30;99.90
9752;DHT22;4915;51.226;5.966;2022-08-23T22:10:06;21.20;99.90
9752;DHT22;4915;51.226;5.966;2022-08-23T22:12:35;21.20;99.90
9752;DHT22;4915;51.226;5.966;2022-08-23T22:15:03;21.20;99.90
9752;DHT22;4915;51.226;5.966;2022-08-23T22:17:30;21.20;99.90
9752;DHT22;4915;51.226;5.966;2022-08-23T22:19:57;21.10;99.90
9752;DHT22;4915;51.226;5.966;2022-08-23T22:22:24;21.20;99.90
9752;DHT22;4915;51.226;5.966;2022-08-23T22:24:52;21.20;99.90
9752;DHT22;4915;51.226;5.966;2022-08-23T22:27:19;21.30;99.90
9752;DHT22;4915;51.226;5.966;2022-08-23T22:29:48;21.30;99.90
9752;DHT22;4915;51.226;5.966;2022-08-23T22:32:15;21.20;99.90
9752;DHT22;4915;51.226;5.966;2022-08-23T22:34:42;21.20;99.90
9752;DHT22;4915;51.226;5.966;2022-08-23T22:37:09;21.20;99.90
9752;DHT22;4915;51.226;5.966;2022-08-23T22:39:36;21.00;99.90
9752;DHT22;4915;51.226;5.966;2022-08-23T22:42:04;20.90;99.90
9752;DHT22;4915;51.226;5.966;2022-08-23T22:44:31;20.80;99.90
9752;DHT22;4915;51.226;5.966;2022-08-23T22:47:00;20.80;99.90
9752;DHT22;4915;51.226;5.966;2022-08-23T22:49:27;20.80;99.90
9752;DHT22;4915;51.226;5.966;2022-08-23T22:51:54;20.80;99.90
9752;DHT22;4915;51.226;5.966;2022-08-23T22:54:22;20.80;99.90
9752;DHT22;4915;51.226;5.966;2022-08-23T22:56:50;20.70;99.90
9752;DHT22;4915;51.226;5.966;2022-08-23T22:59:19;20.70;99.90
9752;DHT22;4915;51.226;5.966;2022-08-23T23:01:48;20.60;99.90
9752;DHT22;4915;51.226;5.966;2022-08-23T23:04:20;20.60;99.90
9752;DHT22;4915;51.226;5.966;2022-08-23T23:06:47;20.60;99.90
9752;DHT22;4915;51.226;5.966;2022-08-23T23:09:14;20.50;99.90
9752;DHT22;4915;51.226;5.966;2022-08-23T23:11:42;20.40;99.90
9752;DHT22;4915;51.226;5.966;2022-08-23T23:14:10;20.30;99.90
9752;DHT22;4915;51.226;5.966;2022-08-23T23:16:38;20.30;99.90
9752;DHT22;4915;51.226;5.966;2022-08-23T23:19:05;20.20;99.90
9752;DHT22;4915;51.226;5.966;2022-08-23T23:21:54;20.10;99.90
9752;DHT22;4915;51.226;5.966;2022-08-23T23:24:23;20.10;99.90
9752;DHT22;4915;51.226;5.966;2022-08-23T23:26:51;20.10;99.90
9752;DHT22;4915;51.226;5.966;2022-08-23T23:29:18;20.10;99.90
9752;DHT22;4915;51.226;5.966;2022-08-23T23:31:46;20.10;99.90
9752;DHT22;4915;51.226;5.966;2022-08-23T23:34:13;20.10;99.90
9752;DHT22;4915;51.226;5.966;2022-08-23T23:36:41;20.20;99.90
9752;DHT22;4915;51.226;5.966;2022-08-23T23:39:10;20.20;99.90
9752;DHT22;4915;51.226;5.966;2022-08-23T23:41:38;20.20;99.90
9752;DHT22;4915;51.226;5.966;2022-08-23T23:44:05;20.20;99.90
9752;DHT22;4915;51.226;5.966;2022-08-23T23:46:32;20.20;99.90